sensor_id;sensor_type;location;lat;lon;timestamp;temperature;humidity
546;DHT22;259;53.304;9.816;2023-10-19T00:02:13;11.60;98.80
546;DHT22;259;53.304;9.816;2023-10-19T00:04:40;11.60;98.80
546;DHT22;259;53.304;9.816;2023-10-19T00:07:06;11.60;98.80
546;DHT22;259;53.304;9.816;2023-10-19T00:09:34;11.50;98.80
546;DHT22;259;53.304;9.816;2023-10-19T00:12:06;11.50;98.80
546;DHT22;259;53.304;9.816;2023-10-19T00:14:34;11.50;98.80
546;DHT22;259;53.304;9.816;2023-10-19T00:17:00;11.50;98.80
546;DHT22;259;53.304;9.816;2023-10-19T00:19:32;11.50;98.70
546;DHT22;259;53.304;9.816;2023-10-19T00:22:04;11.50;98.80
546;DHT22;259;53.304;9.816;2023-10-19T00:24:34;11.50;98.70
546;DHT22;259;53.304;9.816;2023-10-19T00:27:01;11.50;98.70
546;DHT22;259;53.304;9.816;2023-10-19T00:29:42;11.50;98.70
546;DHT22;259;53.304;9.816;2023-10-19T00:32:13;11.50;98.80
546;DHT22;259;53.304;9.816;2023-10-19T00:34:40;11.50;98.80
546;DHT22;259;53.304;9.816;2023-10-19T00:37:07;11.50;98.80
546;DHT22;259;53.304;9.816;2023-10-19T00:39:36;11.50;98.80
546;DHT22;259;53.304;9.816;2023-10-19T00:42:20;11.50;98.80
546;DHT22;259;53.304;9.816;2023-10-19T00:44:50;11.50;98.80
546;DHT22;259;53.304;9.816;2023-10-19T00:47:16;11.50;98.80
546;DHT22;259;53.304;9.816;2023-10-19T00:49:49;11.50;98.80
546;DHT22;259;53.304;9.816;2023-10-19T00:52:14;11.50;98.80
546;DHT22;259;53.304;9.816;2023-10-19T00:54:50;11.50;98.80
546;DHT22;259;53.304;9.816;2023-10-19T00:57:19;11.50;98.80
546;DHT22;259;53.304;9.816;2023-10-19T01:00:11;11.50;98.80
546;DHT22;259;53.304;9.816;2023-10-19T01:02:41;11.50;98.70
546;DHT22;259;53.304;9.816;2023-10-19T01:05:10;11.50;98.80
546;DHT22;259;53.304;9.816;2023-10-19T01:07:39;11.40;98.70
546;DHT22;259;53.304;9.816;2023-10-19T01:10:06;11.50;98.80
546;DHT22;259;53.304;9.816;2023-10-19T01:12:45;11.50;98.70
546;DHT22;259;53.304;9.816;2023-10-19T01:17:48;11.50;99.10
546;DHT22;259;53.304;9.816;2023-10-19T01:20:20;11.40;98.70
546;DHT22;259;53.304;9.816;2023-10-19T01:22:59;11.50;98.70
546;DHT22;259;53.304;9.816;2023-10-19T01:25:42;11.50;98.80
546;DHT22;259;53.304;9.816;2023-10-19T01:28:21;11.60;98.80
546;DHT22;259;53.304;9.816;2023-10-19T01:30:51;11.40;98.70
546;DHT22;259;53.304;9.816;2023-10-19T01:33:17;11.50;98.70
546;DHT22;259;53.304;9.816;2023-10-19T01:35:44;11.40;98.60
546;DHT22;259;53.304;9.816;2023-10-19T01:38:29;11.40;98.70
546;DHT22;259;53.304;9.816;2023-10-19T01:41:03;11.40;98.70
546;DHT22;259;53.304;9.816;2023-10-19T01:43:46;11.40;98.80
546;DHT22;259;53.304;9.816;2023-10-19T01:46:17;11.40;98.90
546;DHT22;259;53.304;9.816;2023-10-19T01:48:56;11.40;99.00
546;DHT22;259;53.304;9.816;2023-10-19T01:51:24;11.40;99.10
546;DHT22;259;53.304;9.816;2023-10-19T01:53:52;11.40;99.10
546;DHT22;259;53.304;9.816;2023-10-19T01:56:18;11.40;99.20
546;DHT22;259;53.304;9.816;2023-10-19T01:58:45;11.40;99.10
546;DHT22;259;53.304;9.816;2023-10-19T02:01:17;11.40;99.10
546;DHT22;259;53.304;9.816;2023-10-19T02:04:01;11.30;99.00
546;DHT22;259;53.304;9.816;2023-10-19T02:06:30;11.40;99.10
546;DHT22;259;53.304;9.816;2023-10-19T02:09:20;11.40;99.00
546;DHT22;259;53.304;9.816;2023-10-19T02:11:50;11.40;99.00
546;DHT22;259;53.304;9.816;2023-10-19T02:14:19;11.40;99.00
546;DHT22;259;53.304;9.816;2023-10-19T02:16:50;11.40;98.90
546;DHT22;259;53.304;9.816;2023-10-19T02:19:18;11.40;98.90
546;DHT22;259;53.304;9.816;2023-10-19T02:21:47;11.40;98.90
546;DHT22;259;53.304;9.816;2023-10-19T02:24:14;11.40;98.90
546;DHT22;259;53.304;9.816;2023-10-19T02:26:42;11.40;98.80
546;DHT22;259;53.304;9.816;2023-10-19T02:29:08;11.40;98.80
546;DHT22;259;53.304;9.816;2023-10-19T02:31:36;11.40;98.80
546;DHT22;259;53.304;9.816;2023-10-19T02:34:06;11.40;98.80
546;DHT22;259;53.304;9.816;2023-10-19T02:36:33;11.40;98.90
546;DHT22;259;53.304;9.816;2023-10-19T02:39:02;11.40;98.80
546;DHT22;259;53.304;9.816;2023-10-19T02:41:42;11.40;98.90
546;DHT22;259;53.304;9.816;2023-10-19T02:44:14;11.40;98.90
546;DHT22;259;53.304;9.816;2023-10-19T02:46:46;11.40;98.90
546;DHT22;259;53.304;9.816;2023-10-19T02:49:14;11.30;98.80
546;DHT22;259;53.304;9.816;2023-10-19T02:51:44;11.30;98.80
546;DHT22;259;53.304;9.816;2023-10-19T02:54:15;11.30;98.80
546;DHT22;259;53.304;9.816;2023-10-19T02:56:46;11.30;98.80
546;DHT22;259;53.304;9.816;2023-10-19T02:59:18;11.40;98.90
546;DHT22;259;53.304;9.816;2023-10-19T03:01:54;11.40;98.90
546;DHT22;259;53.304;9.816;2023-10-19T03:04:36;11.40;99.00
546;DHT22;259;53.304;9.816;2023-10-19T03:07:05;11.30;98.90
546;DHT22;259;53.304;9.816;2023-10-19T03:09:32;11.30;98.90
546;DHT22;259;53.304;9.816;2023-10-19T03:12:02;11.30;98.90
546;DHT22;259;53.304;9.816;2023-10-19T03:14:29;11.30;98.90
546;DHT22;259;53.304;9.816;2023-10-19T03:16:57;11.30;98.90
546;DHT22;259;53.304;9.816;2023-10-19T03:19:24;11.40;99.00
546;DHT22;259;53.304;9.816;2023-10-19T03:21:50;11.30;99.00
546;DHT22;259;53.304;9.816;2023-10-19T03:24:17;11.30;99.00
546;DHT22;259;53.304;9.816;2023-10-19T03:27:07;11.30;99.00
546;DHT22;259;53.304;9.816;2023-10-19T03:29:44;11.30;99.00
546;DHT22;259;53.304;9.816;2023-10-19T03:32:19;11.30;99.00
546;DHT22;259;53.304;9.816;2023-10-19T03:34:52;11.30;99.00
546;DHT22;259;53.304;9.816;2023-10-19T03:37:24;11.30;99.00
546;DHT22;259;53.304;9.816;2023-10-19T03:39:56;11.30;99.00
546;DHT22;259;53.304;9.816;2023-10-19T03:42:22;11.30;99.00
546;DHT22;259;53.304;9.816;2023-10-19T03:44:51;11.30;99.00
546;DHT22;259;53.304;9.816;2023-10-19T03:47:21;11.10;98.90
546;DHT22;259;53.304;9.816;2023-10-19T03:49:51;11.30;99.00
546;DHT22;259;53.304;9.816;2023-10-19T03:52:18;11.30;99.00
546;DHT22;259;53.304;9.816;2023-10-19T03:54:44;11.30;99.00
546;DHT22;259;53.304;9.816;2023-10-19T03:57:12;11.30;99.00
546;DHT22;259;53.304;9.816;2023-10-19T03:59:41;11.30;99.00
546;DHT22;259;53.304;9.816;2023-10-19T04:02:10;11.30;99.00
546;DHT22;259;53.304;9.816;2023-10-19T04:04:43;11.30;99.00
546;DHT22;259;53.304;9.816;2023-10-19T04:07:13;11.30;99.00
546;DHT22;259;53.304;9.816;2023-10-19T04:09:55;11.30;99.00
546;DHT22;259;53.304;9.816;2023-10-19T04:12:37;11.30;99.10
546;DHT22;259;53.304;9.816;2023-10-19T04:15:07;11.30;99.10
546;DHT22;259;53.304;9.816;2023-10-19T04:17:43;11.30;99.10
546;DHT22;259;53.304;9.816;2023-10-19T04:20:17;11.30;99.10
546;DHT22;259;53.304;9.816;2023-10-19T04:25:16;11.30;99.40
546;DHT22;259;53.304;9.816;2023-10-19T04:27:47;11.30;99.10
546;DHT22;259;53.304;9.816;2023-10-19T04:30:14;11.30;99.10
546;DHT22;259;53.304;9.816;2023-10-19T04:32:47;11.20;99.00
546;DHT22;259;53.304;9.816;2023-10-19T04:35:15;11.20;99.00
546;DHT22;259;53.304;9.816;2023-10-19T04:37:50;11.20;99.00
546;DHT22;259;53.304;9.816;2023-10-19T04:40:18;11.20;99.00
546;DHT22;259;53.304;9.816;2023-10-19T04:42:45;11.30;99.00
546;DHT22;259;53.304;9.816;2023-10-19T04:45:11;11.20;99.00
546;DHT22;259;53.304;9.816;2023-10-19T04:47:38;11.20;99.00
546;DHT22;259;53.304;9.816;2023-10-19T04:50:07;11.20;99.00
546;DHT22;259;53.304;9.816;2023-10-19T04:52:36;11.20;99.00
546;DHT22;259;53.304;9.816;2023-10-19T04:55:02;11.20;99.00
546;DHT22;259;53.304;9.816;2023-10-19T04:57:28;11.20;99.00
546;DHT22;259;53.304;9.816;2023-10-19T04:59:54;11.20;99.00
546;DHT22;259;53.304;9.816;2023-10-19T05:02:20;11.20;99.00
546;DHT22;259;53.304;9.816;2023-10-19T05:04:46;11.20;99.00
546;DHT22;259;53.304;9.816;2023-10-19T05:07:12;11.20;99.00
546;DHT22;259;53.304;9.816;2023-10-19T05:09:42;11.20;99.00
546;DHT22;259;53.304;9.816;2023-10-19T05:12:08;11.20;99.10
546;DHT22;259;53.304;9.816;2023-10-19T05:14:41;11.20;99.00
546;DHT22;259;53.304;9.816;2023-10-19T05:17:08;11.20;99.00
546;DHT22;259;53.304;9.816;2023-10-19T05:19:36;11.20;99.00
546;DHT22;259;53.304;9.816;2023-10-19T05:22:07;11.20;99.00
546;DHT22;259;53.304;9.816;2023-10-19T05:24:35;11.20;99.10
546;DHT22;259;53.304;9.816;2023-10-19T05:27:01;11.20;99.10
546;DHT22;259;53.304;9.816;2023-10-19T05:29:27;11.20;99.10
546;DHT22;259;53.304;9.816;2023-10-19T05:31:53;11.20;99.10
546;DHT22;259;53.304;9.816;2023-10-19T05:34:23;11.20;99.10
546;DHT22;259;53.304;9.816;2023-10-19T05:36:49;11.20;99.10
546;DHT22;259;53.304;9.816;2023-10-19T05:39:18;11.10;99.00
546;DHT22;259;53.304;9.816;2023-10-19T05:41:45;11.20;99.10
546;DHT22;259;53.304;9.816;2023-10-19T05:44:11;11.10;99.00
546;DHT22;259;53.304;9.816;2023-10-19T05:46:37;11.20;99.10
546;DHT22;259;53.304;9.816;2023-10-19T05:49:03;11.10;99.00
546;DHT22;259;53.304;9.816;2023-10-19T05:51:31;11.20;99.10
546;DHT22;259;53.304;9.816;2023-10-19T05:53:57;11.20;99.20
546;DHT22;259;53.304;9.816;2023-10-19T05:56:30;11.20;99.10
546;DHT22;259;53.304;9.816;2023-10-19T05:58:57;11.10;99.10
546;DHT22;259;53.304;9.816;2023-10-19T06:01:23;11.20;99.10
546;DHT22;259;53.304;9.816;2023-10-19T06:03:50;11.20;99.10
546;DHT22;259;53.304;9.816;2023-10-19T06:06:16;11.10;99.10
546;DHT22;259;53.304;9.816;2023-10-19T06:08:42;11.20;99.00
546;DHT22;259;53.304;9.816;2023-10-19T06:11:08;11.20;99.10
546;DHT22;259;53.304;9.816;2023-10-19T06:13:33;11.10;99.10
546;DHT22;259;53.304;9.816;2023-10-19T06:15:59;11.10;99.10
546;DHT22;259;53.304;9.816;2023-10-19T06:18:25;11.10;99.20
546;DHT22;259;53.304;9.816;2023-10-19T06:20:50;11.10;99.30
546;DHT22;259;53.304;9.816;2023-10-19T06:23:17;11.10;99.40
546;DHT22;259;53.304;9.816;2023-10-19T06:25:43;11.10;99.40
546;DHT22;259;53.304;9.816;2023-10-19T06:28:09;11.10;99.40
546;DHT22;259;53.304;9.816;2023-10-19T06:30:37;11.10;99.40
546;DHT22;259;53.304;9.816;2023-10-19T06:33:03;11.10;99.40
546;DHT22;259;53.304;9.816;2023-10-19T06:35:30;11.10;99.30
546;DHT22;259;53.304;9.816;2023-10-19T06:38:02;11.10;99.30
546;DHT22;259;53.304;9.816;2023-10-19T06:40:29;11.10;99.30
546;DHT22;259;53.304;9.816;2023-10-19T06:42:57;11.10;99.20
546;DHT22;259;53.304;9.816;2023-10-19T06:45:24;11.10;99.20
546;DHT22;259;53.304;9.816;2023-10-19T06:47:51;11.10;99.10
546;DHT22;259;53.304;9.816;2023-10-19T06:50:19;11.10;99.10
546;DHT22;259;53.304;9.816;2023-10-19T06:52:46;11.10;99.10
546;DHT22;259;53.304;9.816;2023-10-19T06:55:13;11.10;99.20
546;DHT22;259;53.304;9.816;2023-10-19T06:57:47;11.10;99.10
546;DHT22;259;53.304;9.816;2023-10-19T07:00:15;11.10;99.10
546;DHT22;259;53.304;9.816;2023-10-19T07:02:45;11.10;99.10
546;DHT22;259;53.304;9.816;2023-10-19T07:05:12;11.10;99.10
546;DHT22;259;53.304;9.816;2023-10-19T07:07:43;11.10;99.10
546;DHT22;259;53.304;9.816;2023-10-19T07:10:11;11.10;99.00
546;DHT22;259;53.304;9.816;2023-10-19T07:12:40;11.10;99.20
546;DHT22;259;53.304;9.816;2023-10-19T07:15:08;11.10;99.10
546;DHT22;259;53.304;9.816;2023-10-19T07:17:42;11.10;99.10
546;DHT22;259;53.304;9.816;2023-10-19T07:20:10;11.10;99.20
546;DHT22;259;53.304;9.816;2023-10-19T07:22:56;11.10;99.10
546;DHT22;259;53.304;9.816;2023-10-19T07:25:25;11.10;99.20
546;DHT22;259;53.304;9.816;2023-10-19T07:27:52;11.10;99.10
546;DHT22;259;53.304;9.816;2023-10-19T07:30:19;11.10;99.20
546;DHT22;259;53.304;9.816;2023-10-19T07:32:52;11.10;99.20
546;DHT22;259;53.304;9.816;2023-10-19T07:35:27;11.10;99.20
546;DHT22;259;53.304;9.816;2023-10-19T07:37:54;11.10;99.10
546;DHT22;259;53.304;9.816;2023-10-19T07:40:22;11.10;99.20
546;DHT22;259;53.304;9.816;2023-10-19T07:42:49;11.00;99.10
546;DHT22;259;53.304;9.816;2023-10-19T07:45:17;11.10;99.20
546;DHT22;259;53.304;9.816;2023-10-19T07:47:44;11.10;99.20
546;DHT22;259;53.304;9.816;2023-10-19T07:50:11;11.00;99.10
546;DHT22;259;53.304;9.816;2023-10-19T07:52:42;11.10;99.20
546;DHT22;259;53.304;9.816;2023-10-19T07:55:18;11.00;99.20
546;DHT22;259;53.304;9.816;2023-10-19T07:57:44;11.00;99.10
546;DHT22;259;53.304;9.816;2023-10-19T08:00:11;11.00;99.20
546;DHT22;259;53.304;9.816;2023-10-19T08:02:40;11.00;99.10
546;DHT22;259;53.304;9.816;2023-10-19T08:05:13;11.00;99.20
546;DHT22;259;53.304;9.816;2023-10-19T08:07:40;11.00;99.20
546;DHT22;259;53.304;9.816;2023-10-19T08:10:12;11.00;99.20
546;DHT22;259;53.304;9.816;2023-10-19T08:12:39;11.00;99.10
546;DHT22;259;53.304;9.816;2023-10-19T08:15:09;11.00;99.10
546;DHT22;259;53.304;9.816;2023-10-19T08:17:40;11.00;99.10
546;DHT22;259;53.304;9.816;2023-10-19T08:20:07;11.00;99.10
546;DHT22;259;53.304;9.816;2023-10-19T08:22:36;11.00;99.10
546;DHT22;259;53.304;9.816;2023-10-19T08:25:03;11.00;99.10
546;DHT22;259;53.304;9.816;2023-10-19T08:27:30;11.00;99.10
546;DHT22;259;53.304;9.816;2023-10-19T08:29:56;11.00;99.20
546;DHT22;259;53.304;9.816;2023-10-19T08:32:22;11.00;99.20
546;DHT22;259;53.304;9.816;2023-10-19T08:34:48;11.00;99.20
546;DHT22;259;53.304;9.816;2023-10-19T08:37:13;11.00;99.10
546;DHT22;259;53.304;9.816;2023-10-19T08:39:39;11.00;99.20
546;DHT22;259;53.304;9.816;2023-10-19T08:42:06;11.00;99.20
546;DHT22;259;53.304;9.816;2023-10-19T08:44:32;11.00;99.20
546;DHT22;259;53.304;9.816;2023-10-19T08:46:58;11.00;99.20
546;DHT22;259;53.304;9.816;2023-10-19T08:49:26;11.00;99.20
546;DHT22;259;53.304;9.816;2023-10-19T08:51:54;11.00;99.20
546;DHT22;259;53.304;9.816;2023-10-19T08:54:21;11.00;99.20
546;DHT22;259;53.304;9.816;2023-10-19T08:56:47;11.00;99.20
546;DHT22;259;53.304;9.816;2023-10-19T08:59:13;11.00;99.20
546;DHT22;259;53.304;9.816;2023-10-19T09:01:43;11.00;99.20
546;DHT22;259;53.304;9.816;2023-10-19T09:04:12;11.00;99.20
546;DHT22;259;53.304;9.816;2023-10-19T09:06:42;11.00;99.20
546;DHT22;259;53.304;9.816;2023-10-19T09:09:14;11.00;99.20
546;DHT22;259;53.304;9.816;2023-10-19T09:11:47;11.00;99.30
546;DHT22;259;53.304;9.816;2023-10-19T09:14:14;11.00;99.20
546;DHT22;259;53.304;9.816;2023-10-19T09:16:56;11.00;99.30
546;DHT22;259;53.304;9.816;2023-10-19T09:19:42;11.00;99.20
546;DHT22;259;53.304;9.816;2023-10-19T09:22:10;11.00;99.20
546;DHT22;259;53.304;9.816;2023-10-19T09:24:47;11.00;99.20
546;DHT22;259;53.304;9.816;2023-10-19T09:27:16;11.00;99.20
546;DHT22;259;53.304;9.816;2023-10-19T09:29:43;11.00;99.20
546;DHT22;259;53.304;9.816;2023-10-19T09:32:09;11.00;99.20
546;DHT22;259;53.304;9.816;2023-10-19T09:34:36;11.00;99.20
546;DHT22;259;53.304;9.816;2023-10-19T09:37:03;11.00;99.20
546;DHT22;259;53.304;9.816;2023-10-19T09:39:33;11.00;99.30
546;DHT22;259;53.304;9.816;2023-10-19T09:42:07;11.00;99.20
546;DHT22;259;53.304;9.816;2023-10-19T09:44:44;11.00;99.30
546;DHT22;259;53.304;9.816;2023-10-19T09:47:34;11.00;99.60
546;DHT22;259;53.304;9.816;2023-10-19T09:50:02;11.00;99.30
546;DHT22;259;53.304;9.816;2023-10-19T09:52:31;11.00;99.30
546;DHT22;259;53.304;9.816;2023-10-19T09:55:03;11.00;99.30
546;DHT22;259;53.304;9.816;2023-10-19T09:57:46;11.00;99.30
546;DHT22;259;53.304;9.816;2023-10-19T10:00:17;11.00;99.30
546;DHT22;259;53.304;9.816;2023-10-19T10:02:49;11.00;99.30
546;DHT22;259;53.304;9.816;2023-10-19T10:10:51;11.00;99.30
546;DHT22;259;53.304;9.816;2023-10-19T10:15:56;11.00;99.40
546;DHT22;259;53.304;9.816;2023-10-19T10:18:35;11.00;99.30
546;DHT22;259;53.304;9.816;2023-10-19T10:23:40;11.00;99.30
546;DHT22;259;53.304;9.816;2023-10-19T10:26:08;11.00;99.30
546;DHT22;259;53.304;9.816;2023-10-19T10:28:35;11.00;99.30
546;DHT22;259;53.304;9.816;2023-10-19T10:36:06;11.00;99.30
546;DHT22;259;53.304;9.816;2023-10-19T10:38:36;11.00;99.30
546;DHT22;259;53.304;9.816;2023-10-19T10:41:01;11.00;99.30
546;DHT22;259;53.304;9.816;2023-10-19T10:43:27;11.00;99.30
546;DHT22;259;53.304;9.816;2023-10-19T10:46:03;11.00;99.30
546;DHT22;259;53.304;9.816;2023-10-19T10:48:32;11.00;99.30
546;DHT22;259;53.304;9.816;2023-10-19T10:50:58;11.00;99.30
546;DHT22;259;53.304;9.816;2023-10-19T10:53:24;11.00;99.30
546;DHT22;259;53.304;9.816;2023-10-19T10:55:52;11.00;99.30
546;DHT22;259;53.304;9.816;2023-10-19T10:58:18;10.90;99.30
546;DHT22;259;53.304;9.816;2023-10-19T11:00:45;11.00;99.40
546;DHT22;259;53.304;9.816;2023-10-19T11:03:12;10.90;99.40
546;DHT22;259;53.304;9.816;2023-10-19T11:05:39;10.90;99.40
546;DHT22;259;53.304;9.816;2023-10-19T11:08:08;10.90;99.40
546;DHT22;259;53.304;9.816;2023-10-19T11:10:35;10.90;99.40
546;DHT22;259;53.304;9.816;2023-10-19T11:13:06;10.90;99.50
546;DHT22;259;53.304;9.816;2023-10-19T11:15:33;10.90;99.60
546;DHT22;259;53.304;9.816;2023-10-19T11:18:00;10.90;99.50
546;DHT22;259;53.304;9.816;2023-10-19T11:20:27;10.90;99.50
546;DHT22;259;53.304;9.816;2023-10-19T11:22:53;10.90;99.50
546;DHT22;259;53.304;9.816;2023-10-19T11:25:28;10.90;99.50
546;DHT22;259;53.304;9.816;2023-10-19T11:27:56;10.90;99.50
546;DHT22;259;53.304;9.816;2023-10-19T11:30:27;11.00;99.50
546;DHT22;259;53.304;9.816;2023-10-19T11:32:55;11.00;99.50
546;DHT22;259;53.304;9.816;2023-10-19T11:35:25;11.00;99.50
546;DHT22;259;53.304;9.816;2023-10-19T11:37:57;11.00;99.50
546;DHT22;259;53.304;9.816;2023-10-19T11:40:25;11.00;99.40
546;DHT22;259;53.304;9.816;2023-10-19T11:42:54;11.00;99.40
546;DHT22;259;53.304;9.816;2023-10-19T11:45:25;11.00;99.40
546;DHT22;259;53.304;9.816;2023-10-19T11:47:53;10.90;99.30
546;DHT22;259;53.304;9.816;2023-10-19T11:50:19;10.90;99.30
546;DHT22;259;53.304;9.816;2023-10-19T11:52:46;11.00;99.40
546;DHT22;259;53.304;9.816;2023-10-19T11:55:15;10.90;99.30
546;DHT22;259;53.304;9.816;2023-10-19T11:57:42;11.00;99.40
546;DHT22;259;53.304;9.816;2023-10-19T12:00:12;10.90;99.30
546;DHT22;259;53.304;9.816;2023-10-19T12:02:47;10.90;99.30
546;DHT22;259;53.304;9.816;2023-10-19T12:05:13;11.00;99.40
546;DHT22;259;53.304;9.816;2023-10-19T12:07:40;10.90;99.30
546;DHT22;259;53.304;9.816;2023-10-19T12:10:08;10.90;99.30
546;DHT22;259;53.304;9.816;2023-10-19T12:12:35;11.00;99.40
546;DHT22;259;53.304;9.816;2023-10-19T12:15:05;11.00;99.40
546;DHT22;259;53.304;9.816;2023-10-19T12:17:32;10.90;99.30
546;DHT22;259;53.304;9.816;2023-10-19T12:19:58;10.90;99.30
546;DHT22;259;53.304;9.816;2023-10-19T12:22:24;10.90;99.30
546;DHT22;259;53.304;9.816;2023-10-19T12:24:54;11.00;99.40
546;DHT22;259;53.304;9.816;2023-10-19T12:27:21;10.90;99.30
546;DHT22;259;53.304;9.816;2023-10-19T12:29:50;10.90;99.30
546;DHT22;259;53.304;9.816;2023-10-19T12:32:17;10.90;99.30
546;DHT22;259;53.304;9.816;2023-10-19T12:34:44;11.00;99.30
546;DHT22;259;53.304;9.816;2023-10-19T12:37:10;11.00;99.30
546;DHT22;259;53.304;9.816;2023-10-19T12:39:38;10.90;99.30
546;DHT22;259;53.304;9.816;2023-10-19T12:42:14;10.90;99.30
546;DHT22;259;53.304;9.816;2023-10-19T12:44:41;10.90;99.30
546;DHT22;259;53.304;9.816;2023-10-19T12:47:10;11.00;99.30
546;DHT22;259;53.304;9.816;2023-10-19T12:49:40;10.90;99.30
546;DHT22;259;53.304;9.816;2023-10-19T12:52:07;10.90;99.30
546;DHT22;259;53.304;9.816;2023-10-19T12:54:34;11.00;99.40
546;DHT22;259;53.304;9.816;2023-10-19T12:57:03;10.90;99.30
546;DHT22;259;53.304;9.816;2023-10-19T12:59:33;10.90;99.40
546;DHT22;259;53.304;9.816;2023-10-19T13:01:59;10.90;99.30
546;DHT22;259;53.304;9.816;2023-10-19T13:04:28;10.90;99.30
546;DHT22;259;53.304;9.816;2023-10-19T13:06:56;10.90;99.30
546;DHT22;259;53.304;9.816;2023-10-19T13:09:24;10.90;99.30
546;DHT22;259;53.304;9.816;2023-10-19T13:12:02;10.90;99.30
546;DHT22;259;53.304;9.816;2023-10-19T13:14:33;10.90;99.30
546;DHT22;259;53.304;9.816;2023-10-19T13:16:59;10.90;99.40
546;DHT22;259;53.304;9.816;2023-10-19T13:19:25;10.90;99.30
546;DHT22;259;53.304;9.816;2023-10-19T13:21:52;10.90;99.30
546;DHT22;259;53.304;9.816;2023-10-19T13:24:19;10.90;99.30
546;DHT22;259;53.304;9.816;2023-10-19T13:26:48;10.90;99.30
546;DHT22;259;53.304;9.816;2023-10-19T13:29:14;10.90;99.30
546;DHT22;259;53.304;9.816;2023-10-19T13:31:40;10.90;99.40
546;DHT22;259;53.304;9.816;2023-10-19T13:34:06;10.90;99.40
546;DHT22;259;53.304;9.816;2023-10-19T13:36:36;10.90;99.40
546;DHT22;259;53.304;9.816;2023-10-19T13:39:02;10.90;99.40
546;DHT22;259;53.304;9.816;2023-10-19T13:41:29;10.90;99.40
546;DHT22;259;53.304;9.816;2023-10-19T13:43:55;10.90;99.40
546;DHT22;259;53.304;9.816;2023-10-19T13:46:21;10.90;99.40
546;DHT22;259;53.304;9.816;2023-10-19T13:48:49;10.90;99.40
546;DHT22;259;53.304;9.816;2023-10-19T13:51:17;10.90;99.40
546;DHT22;259;53.304;9.816;2023-10-19T13:53:44;10.90;99.40
546;DHT22;259;53.304;9.816;2023-10-19T13:56:11;10.90;99.40
546;DHT22;259;53.304;9.816;2023-10-19T13:58:38;10.90;99.40
546;DHT22;259;53.304;9.816;2023-10-19T14:01:08;10.90;99.40
546;DHT22;259;53.304;9.816;2023-10-19T14:03:34;10.90;99.40
546;DHT22;259;53.304;9.816;2023-10-19T14:06:03;10.90;99.50
546;DHT22;259;53.304;9.816;2023-10-19T14:08:28;10.90;99.40
546;DHT22;259;53.304;9.816;2023-10-19T14:11:01;10.90;99.40
546;DHT22;259;53.304;9.816;2023-10-19T14:13:27;10.90;99.40
546;DHT22;259;53.304;9.816;2023-10-19T14:15:53;10.90;99.40
546;DHT22;259;53.304;9.816;2023-10-19T14:18:19;10.90;99.40
546;DHT22;259;53.304;9.816;2023-10-19T14:20:44;10.90;99.40
546;DHT22;259;53.304;9.816;2023-10-19T14:23:10;10.90;99.50
546;DHT22;259;53.304;9.816;2023-10-19T14:25:37;10.90;99.40
546;DHT22;259;53.304;9.816;2023-10-19T14:28:08;10.90;99.50
546;DHT22;259;53.304;9.816;2023-10-19T14:30:35;10.90;99.50
546;DHT22;259;53.304;9.816;2023-10-19T14:33:00;10.90;99.50
546;DHT22;259;53.304;9.816;2023-10-19T14:35:27;10.90;99.50
546;DHT22;259;53.304;9.816;2023-10-19T14:37:55;10.90;99.50
546;DHT22;259;53.304;9.816;2023-10-19T14:40:24;10.90;99.50
546;DHT22;259;53.304;9.816;2023-10-19T14:42:54;10.90;99.50
546;DHT22;259;53.304;9.816;2023-10-19T14:45:25;10.90;99.50
546;DHT22;259;53.304;9.816;2023-10-19T14:47:52;10.90;99.50
546;DHT22;259;53.304;9.816;2023-10-19T14:50:22;10.90;99.50
546;DHT22;259;53.304;9.816;2023-10-19T14:52:50;10.90;99.60
546;DHT22;259;53.304;9.816;2023-10-19T14:55:17;10.90;99.50
546;DHT22;259;53.304;9.816;2023-10-19T14:57:44;10.90;99.50
546;DHT22;259;53.304;9.816;2023-10-19T15:00:17;10.90;99.50
546;DHT22;259;53.304;9.816;2023-10-19T15:02:54;10.90;99.50
546;DHT22;259;53.304;9.816;2023-10-19T15:05:21;10.90;99.50
546;DHT22;259;53.304;9.816;2023-10-19T15:07:49;10.90;99.50
546;DHT22;259;53.304;9.816;2023-10-19T15:10:24;10.90;99.60
546;DHT22;259;53.304;9.816;2023-10-19T15:12:52;10.90;99.50
546;DHT22;259;53.304;9.816;2023-10-19T15:15:18;10.90;99.60
546;DHT22;259;53.304;9.816;2023-10-19T15:17:45;10.90;99.50
546;DHT22;259;53.304;9.816;2023-10-19T15:20:13;10.90;99.60
546;DHT22;259;53.304;9.816;2023-10-19T15:22:41;10.90;99.60
546;DHT22;259;53.304;9.816;2023-10-19T15:25:07;10.90;99.50
546;DHT22;259;53.304;9.816;2023-10-19T15:27:34;10.90;99.60
546;DHT22;259;53.304;9.816;2023-10-19T15:30:01;10.90;99.60
546;DHT22;259;53.304;9.816;2023-10-19T15:32:28;10.80;99.50
546;DHT22;259;53.304;9.816;2023-10-19T15:34:56;10.80;99.50
546;DHT22;259;53.304;9.816;2023-10-19T15:37:22;10.90;99.60
546;DHT22;259;53.304;9.816;2023-10-19T15:39:51;10.90;99.60
546;DHT22;259;53.304;9.816;2023-10-19T15:42:18;10.90;99.60
546;DHT22;259;53.304;9.816;2023-10-19T15:44:47;10.90;99.60
546;DHT22;259;53.304;9.816;2023-10-19T15:47:13;10.90;99.60
546;DHT22;259;53.304;9.816;2023-10-19T15:49:50;10.90;99.50
546;DHT22;259;53.304;9.816;2023-10-19T15:52:25;10.90;99.50
546;DHT22;259;53.304;9.816;2023-10-19T15:54:54;10.80;99.50
546;DHT22;259;53.304;9.816;2023-10-19T15:57:20;10.80;99.60
546;DHT22;259;53.304;9.816;2023-10-19T15:59:46;10.80;99.60
546;DHT22;259;53.304;9.816;2023-10-19T16:02:13;10.80;99.70
546;DHT22;259;53.304;9.816;2023-10-19T16:04:41;10.80;99.70
546;DHT22;259;53.304;9.816;2023-10-19T16:07:12;10.80;99.70
546;DHT22;259;53.304;9.816;2023-10-19T16:09:40;10.80;99.70
546;DHT22;259;53.304;9.816;2023-10-19T16:12:06;10.80;99.80
546;DHT22;259;53.304;9.816;2023-10-19T16:14:34;10.80;99.80
546;DHT22;259;53.304;9.816;2023-10-19T16:17:05;10.80;99.80
546;DHT22;259;53.304;9.816;2023-10-19T16:19:31;10.80;99.80
546;DHT22;259;53.304;9.816;2023-10-19T16:21:58;10.80;99.80
546;DHT22;259;53.304;9.816;2023-10-19T16:24:24;10.80;99.90
546;DHT22;259;53.304;9.816;2023-10-19T16:26:51;10.80;99.70
546;DHT22;259;53.304;9.816;2023-10-19T16:29:17;10.80;99.70
546;DHT22;259;53.304;9.816;2023-10-19T16:31:44;10.80;99.70
546;DHT22;259;53.304;9.816;2023-10-19T16:34:12;10.80;99.70
546;DHT22;259;53.304;9.816;2023-10-19T16:36:38;10.80;99.60
546;DHT22;259;53.304;9.816;2023-10-19T16:39:05;10.80;99.60
546;DHT22;259;53.304;9.816;2023-10-19T16:41:36;10.80;99.70
546;DHT22;259;53.304;9.816;2023-10-19T16:44:03;10.80;99.60
546;DHT22;259;53.304;9.816;2023-10-19T16:46:33;10.80;99.60
546;DHT22;259;53.304;9.816;2023-10-19T16:49:02;10.80;99.60
546;DHT22;259;53.304;9.816;2023-10-19T16:51:29;10.80;99.60
546;DHT22;259;53.304;9.816;2023-10-19T16:53:56;10.80;99.60
546;DHT22;259;53.304;9.816;2023-10-19T16:56:22;10.80;99.50
546;DHT22;259;53.304;9.816;2023-10-19T16:58:48;10.80;99.60
546;DHT22;259;53.304;9.816;2023-10-19T17:01:14;10.80;99.50
546;DHT22;259;53.304;9.816;2023-10-19T17:03:40;10.80;99.50
546;DHT22;259;53.304;9.816;2023-10-19T17:06:07;10.80;99.50
546;DHT22;259;53.304;9.816;2023-10-19T17:08:37;10.80;99.40